NEODyS-2

Near Earth Objects - Dynamic Site
NEODyS ∴ Observatories ∴ Site 691 ∴ Obs & residuals
Contact »
691  ▹ 
OBSERVATIONS AND RESIDUALS

691-Steward Observatory, Kitt Peak-Spacewatch

Detections | Residuals | Detections & Residuals

[1-200] [201-400] [401-600] [601-800] [801-1000] [1001-1200] [1201-1400] [1401-1600] [1601-1800] [1801-2000] [2001-2200] [2201-2400] [2401-2600] [2601-2800] [2801-3000] [3001-3200] [3201-3400] [3401-3600] [3601-3800] [3801-4000] [4001-4200] [4201-4400] [4401-4600] [4601-4800] [4801-5000] [5001-5200] [5201-5400] [5401-5600] [5601-5800] [5801-6000] [6001-6200] [6201-6400] [6401-6600] [6601-6800] [6801-7000] [7001-7200] [7201-7400] [7401-7600] [7601-7800] [7801-8000] [8001-8200] [8201-8400] [8401-8600] [8601-8800] [8801-9000] [9001-9200] [9201-9400] [9401-9600] [9601-9800] [9801-10000] [10001-10200] [10201-10400] [10401-10600] [10601-10800] [10801-11000] [11001-11200] [11201-11400] [11401-11600] [11601-11800] [11801-12000] [12001-12200] [12201-12400] [12401-12600] [12601-12800] [12801-13000] [13001-13200] [13201-13400] [13401-13600] [13601-13800] [13801-14000] [14001-14200] [14201-14400] [14401-14600] [14601-14800] [14801-15000] [15001-15200] [15201-15400] [15401-15600] [15601-15800] [15801-16000] [16001-16200] [16201-16400] [16401-16600] [16601-16800] [16801-17000] [17001-17200] [17201-17400] [17401-17600] [17601-17800] [17801-18000] [18001-18200] [18201-18400] [18401-18600] [18601-18800] [18801-19000] [19001-19200] [19201-19400] [19401-19600] [19601-19800] [19801-20000] [20001-20200] [20201-20400] [20401-20600] [20601-20800] [20801-21000] [21001-21200] [21201-21400] [21401-21600] [21601-21800] [21801-22000] [22001-22200] [22201-22400] [22401-22600] [22601-22800] [22801-23000] [23001-23200] [23201-23400] [23401-23600] [23601-23800] [23801-24000] [24001-24200] [24201-24400] [24401-24600] [24601-24800] [24801-25000] [25001-25200] [25201-25400] [25401-25600] [25601-25800] [25801-26000] [26001-26200] [26201-26400] [26401-26600] [26601-26800] [26801-27000] [27001-27200] [27201-27400] [27401-27600] [27601-27800] [27801-28000] [28001-28200] [28201-28400] [28401-28600] [28601-28800] [28801-29000] [29001-29200] [29201-29400] [29401-29600] [29601-29800] [29801-30000] [30001-30200] [30201-30400] [30401-30600] [30601-30800] [30801-31000] [31001-31200] [31201-31400] [31401-31600] [31601-31800] [31801-32000] [32001-32200] [32201-32400] [32401-32600] [32601-32800] [32801-33000] [33001-33200] [33201-33400] [33401-33600] [33601-33800] [33801-34000] [34001-34200] [34201-34400] [34401-34600] [34601-34800] [34801-35000] [35001-35200] [35201-35400] [35401-35600] [35601-35800] [35801-36000] [36001-36200] [36201-36400] [36401-36600] [36601-36800] [36801-37000] [37001-37200] [37201-37400] [37401-37600] [37601-37800] [37801-38000] [38001-38200] [38201-38400] [38401-38600] [38601-38800] [38801-39000] [39001-39200] [39201-39400] [39401-39600] [39601-39800] [39801-40000] [40001-40200] [40201-40400] [40401-40600] [40601-40800] [40801-41000] [41001-41200] [41201-41400] [41401-41600] [41601-41800] [41801-42000] [42001-42200] [42201-42400] [42401-42600] [42601-42800] [42801-43000] [43001-43200] [43201-43400] [43401-43600] [43601-43800] [43801-44000] [44001-44200] [44201-44400] [44401-44600] [44601-44800] [44801-45000] [45001-45200] [45201-45400] [45401-45600] [45601-45800] [45801-46000] [46001-46200] [46201-46400] [46401-46600] [46601-46800] [46801-47000] [47001-47200] [47201-47400] [47401-47600] [47601-47800] [47801-48000] [48001-48200] [48201-48400] [48401-48600] [48601-48800] [48801-49000] [49001-49200] [49201-49400] [49401-49600] [49601-49800] [49801-50000] [50001-50200] [50201-50388]

Designation T Tech N Date Right Ascension Declination Apparent Magnitude Star Catalog Site code χ Used A Used M
yr-mo-day precision hr:min:sec precision rms F bias residual deg min sec precision rms F bias residual mag/col rms residual
2017FA1 O C K 2017-03-20.18366 1.000E-05 09:08:22.990 1.500E-01 0.500 F 0.081 -0.423 +17° 52' 38.30" 1.000E-01 0.500 F 0.204 -0.222 o 691 0.97 Yes No
2017FA1 O C K 2017-03-20.18743 1.000E-05 09:08:26.090 1.500E-01 0.500 F 0.081 0.822 +17° 52' 01.10" 1.000E-01 0.500 F 0.204 -0.748 o 691 2.30 Yes No
2017FX O C H 2017-03-20.19653 1.000E-05 09:43:00.920 1.500E-01 0.500 F 0.106 0.257 +20° 51' 07.10" 1.000E-01 0.500 F 0.388 0.638 o 691 1.45 Yes No
2017FX O C H 2017-03-20.19828 1.000E-05 09:43:01.690 1.500E-01 0.500 F 0.106 -0.873 +20° 51' 08.40" 1.000E-01 0.500 F 0.388 0.123 o 691 1.88 Yes No
2017FX O C H 2017-03-20.20003 1.000E-05 09:43:02.570 1.500E-01 0.500 F 0.106 -0.458 +20° 51' 10.30" 1.000E-01 0.500 F 0.388 0.210 o 691 1.06 Yes No
2017FH1 O C H 2017-03-20.20581 1.000E-05 10:09:23.890 1.500E-01 0.500 F -0.029 0.096 -07° 34' 08.80" 1.000E-01 0.500 F 0.005 -0.573 o 691 1.18 Yes No
2017FB1 O C H 2017-03-20.21041 1.000E-05 10:17:44.520 1.500E-01 0.500 F 0.155 0.151 +08° 09' 40.90" 1.000E-01 0.500 F 0.160 -0.328 o 691 0.73 Yes No
2017FH1 O C H 2017-03-20.22120 1.000E-05 10:09:21.020 1.500E-01 0.500 F 0.024 -0.868 -07° 34' 48.60" 1.000E-01 0.500 F 0.113 -1.083 o 691 2.83 Yes No
2017FB1 O C H 2017-03-20.22572 1.000E-05 10:17:45.720 1.500E-01 0.500 F 0.155 -0.270 +08° 09' 21.20" 1.000E-01 0.500 F 0.160 -0.023 o 691 0.55 Yes No
2017FP2 O C K 2017-03-20.23443 1.000E-05 10:32:57.950 1.500E-01 0.500 F 0.235 -0.256 +05° 16' 13.50" 1.000E-01 0.500 F 0.043 0.257 o 691 0.73 Yes No
2017FP2 O C K 2017-03-20.24646 1.000E-05 10:32:57.100 1.500E-01 0.500 F 0.235 0.387 +05° 16' 36.00" 1.000E-01 0.500 F 0.043 -0.429 o 691 1.16 Yes No
2017FP2 O C K 2017-03-20.25839 1.000E-05 10:32:56.160 1.500E-01 0.500 F 0.235 -0.429 +05° 16' 59.50" 1.000E-01 0.500 F 0.043 0.090 o 691 0.88 Yes No
2017FW2 O C H 2017-03-20.27210 1.000E-05 10:49:38.150 1.500E-01 0.500 F 0.034 -0.052 +13° 34' 52.20" 1.000E-01 0.500 F 0.132 0.078 o 691 0.19 Yes No
2017FW2 O C H 2017-03-20.27441 1.000E-05 10:49:38.440 1.500E-01 0.500 F 0.034 -0.151 +13° 35' 48.90" 1.000E-01 0.500 F 0.132 0.057 o 691 0.33 Yes No
2017FW2 O C H 2017-03-20.27673 1.000E-05 10:49:38.770 1.500E-01 0.500 F 0.034 0.317 +13° 36' 45.70" 1.000E-01 0.500 F 0.132 -0.030 o 691 0.65 Yes No
2017FG3 O C K 2017-03-20.28076 1.000E-05 10:35:58.080 1.500E-01 0.500 F 0.131 0.413 +04° 30' 29.70" 1.000E-01 0.500 F 0.085 -0.260 o 691 0.98 Yes No
2017FG3 O C K 2017-03-20.28990 1.000E-05 10:35:56.380 1.500E-01 0.500 F 0.131 -0.191 +04° 30' 31.70" 1.000E-01 0.500 F 0.085 -0.338 o 691 0.79 Yes No
2017FG3 O C K 2017-03-20.29904 1.000E-05 10:35:54.690 1.500E-01 0.500 F 0.131 -0.660 +04° 30' 34.00" 1.000E-01 0.500 F 0.085 -0.109 o 691 1.35 Yes No
2017FE1 O C 2017-03-20.31528 1.000E-05 11:11:47.030 1.500E-01 0.500 F 0.176 -0.205 +14° 41' 55.00" 1.000E-01 0.500 F 0.188 0.047 20.2 V 0.70 0.10 o 691 0.42 Yes Yes
2017FE1 O C 2017-03-20.33139 1.000E-05 11:11:45.100 1.500E-01 0.500 F 0.176 -0.353 +14° 42' 08.70" 1.000E-01 0.500 F 0.188 0.319 20.1 V 0.70 0.00 o 691 0.95 Yes Yes
2017FE1 O C 2017-03-20.34749 1.000E-05 11:11:43.190 1.500E-01 0.500 F 0.176 -0.268 +14° 42' 21.90" 1.000E-01 0.500 F 0.188 0.140 20.1 V 0.70 0.00 o 691 0.61 Yes Yes
2017CS O C 2017-03-21.15491 1.000E-05 09:58:35.020 1.500E-01 0.500 F 0.146 -1.058 -14° 00' 44.20" 1.000E-01 0.500 F -0.110 -0.058 19.3 V 0.70 0.11 o 691 2.12 Yes Yes
2017CS O C 2017-03-21.15856 1.000E-05 09:58:34.730 1.500E-01 0.500 F 0.146 -0.008 -14° 00' 44.30" 1.000E-01 0.500 F -0.110 -0.161 19.1 V 0.70 -0.09 o 691 0.32 Yes Yes
2017CS O C 2017-03-21.16221 1.000E-05 09:58:34.340 1.500E-01 0.500 F 0.146 -0.408 -14° 00' 44.00" 1.000E-01 0.500 F -0.110 0.133 19.1 V 0.70 -0.09 o 691 0.86 Yes Yes
2017FP2 O C K 2017-03-21.16973 1.000E-05 10:31:54.630 1.500E-01 0.500 F 0.274 0.693 +05° 45' 54.70" 1.000E-01 0.500 F 0.131 -0.826 o 691 2.17 Yes No
2017FP2 O C K 2017-03-21.18357 1.000E-05 10:31:53.610 1.500E-01 0.500 F 0.274 0.102 +05° 46' 21.70" 1.000E-01 0.500 F 0.131 0.059 o 691 0.24 Yes No
2017FP2 O C K 2017-03-21.19736 1.000E-05 10:31:52.620 1.500E-01 0.500 F 0.274 -0.068 +05° 46' 47.00" 1.000E-01 0.500 F 0.131 -0.646 o 691 1.30 Yes No
2017FW2 O C H 2017-03-21.24505 1.000E-05 10:52:52.760 1.500E-01 0.500 F 0.122 -0.184 +18° 54' 47.30" 1.000E-01 0.500 F 0.322 -0.248 o 691 0.64 Yes No
2017FW2 O C H 2017-03-21.24630 1.000E-05 10:52:52.830 1.500E-01 0.500 F 0.122 -0.502 +18° 55' 06.50" 1.000E-01 0.500 F 0.322 -0.834 o 691 2.01 Yes No
2017FW2 O C H 2017-03-21.24755 1.000E-05 10:52:52.940 1.500E-01 0.500 F 0.122 -0.251 +18° 55' 27.20" 1.000E-01 0.500 F 0.322 0.094 o 691 0.54 Yes No
2016QC84 O C H 2017-03-21.25097 1.000E-05 11:07:12.250 1.500E-01 0.500 F 0.137 -0.294 +03° 27' 09.10" 1.000E-01 0.500 F 0.093 -0.372 o 691 0.95 Yes No
2016QC84 O C H 2017-03-21.26536 1.000E-05 11:07:10.270 1.500E-01 0.500 F 0.137 0.127 +03° 26' 54.00" 1.000E-01 0.500 F 0.093 -0.285 o 691 0.63 Yes No
2016QC84 O C H 2017-03-21.27974 1.000E-05 11:07:08.220 1.500E-01 0.500 F 0.137 -0.531 +03° 26' 38.70" 1.000E-01 0.500 F 0.093 -0.407 o 691 1.34 Yes No
2017FH3 O C H 2017-03-21.29579 1.000E-05 11:28:35.400 1.500E-01 0.500 F 0.309 -0.116 +08° 36' 41.40" 1.000E-01 0.500 F 0.124 -0.354 o 691 0.75 Yes No
2017FV2 O C H 2017-03-21.30429 1.000E-05 11:32:54.960 1.500E-01 0.500 F 0.289 0.103 -01° 15' 58.70" 1.000E-01 0.500 F 0.000 -0.070 19.9 R 0.70 0.03 o 691 0.26 Yes Yes
2017FH3 O C H 2017-03-21.30634 1.000E-05 11:28:29.200 1.500E-01 0.500 F 0.309 0.096 +08° 36' 55.40" 1.000E-01 0.500 F 0.124 -0.109 o 691 0.29 Yes No
2017FV2 O C H 2017-03-21.31474 1.000E-05 11:32:52.540 1.500E-01 0.500 F 0.289 0.613 -01° 16' 06.60" 1.000E-01 0.500 F 0.000 0.577 20.2 R 0.70 0.33 o 691 1.75 Yes Yes
2017FH3 O C H 2017-03-21.31680 1.000E-05 11:28:22.930 1.500E-01 0.500 F 0.309 -1.432 +08° 37' 09.50" 1.000E-01 0.500 F 0.124 0.374 o 691 3.01 Yes No
2017FV2 O C H 2017-03-21.32520 1.000E-05 11:32:50.080 1.500E-01 0.500 F 0.289 0.478 -01° 16' 15.40" 1.000E-01 0.500 F 0.000 0.314 20.3 R 0.70 0.43 o 691 1.20 Yes Yes
2015BY310 O C H 2017-03-22.11376 1.000E-05 04:45:26.110 1.500E-01 0.500 F -0.138 0.049 -02° 54' 42.00" 1.000E-01 0.500 F 0.073 0.143 o 691 0.31 Yes No
2015BY310 O C H 2017-03-22.11544 1.000E-05 04:45:25.570 1.500E-01 0.500 F -0.138 -0.997 -02° 54' 53.50" 1.000E-01 0.500 F 0.073 -1.060 o 691 2.97 Yes No
2015BY310 O C H 2017-03-22.11713 1.000E-05 04:45:25.080 1.500E-01 0.500 F -0.138 -1.257 -02° 55' 04.90" 1.000E-01 0.500 F 0.073 -2.101 o 691 4.80 No No
2014NB39 O C H 2017-03-22.15773 1.000E-05 09:37:04.120 1.500E-01 0.500 F 0.102 0.162 -17° 20' 28.30" 1.000E-01 0.500 F -0.049 -0.657 o 691 1.37 Yes No
2017CS O C 2017-03-22.16138 1.000E-05 09:57:03.950 1.500E-01 0.500 F 0.103 -0.010 -14° 00' 16.90" 1.000E-01 0.500 F -0.109 -0.151 19.1 V 0.70 -0.07 o 691 0.30 Yes Yes
2014NB39 O C H 2017-03-22.16694 1.000E-05 09:37:03.980 1.500E-01 0.500 F 0.102 -0.468 -17° 20' 08.30" 1.000E-01 0.500 F -0.049 -0.343 o 691 1.17 Yes No
2017CS O C 2017-03-22.17059 1.000E-05 09:57:03.020 1.500E-01 0.500 F 0.103 -0.245 -14° 00' 16.40" 1.000E-01 0.500 F -0.109 0.106 19.2 V 0.70 0.03 o 691 0.53 Yes Yes
2014NB39 O C H 2017-03-22.17617 1.000E-05 09:37:03.900 1.500E-01 0.500 F 0.102 -0.230 -17° 19' 47.40" 1.000E-01 0.500 F -0.049 0.823 o 691 1.72 Yes No
2017CS O C 2017-03-22.17982 1.000E-05 09:57:02.110 1.500E-01 0.500 F 0.103 -0.134 -14° 00' 16.10" 1.000E-01 0.500 F -0.109 0.143 19.1 V 0.70 -0.07 o 691 0.39 Yes Yes
2017FL63 O C K 2017-03-22.20035 1.000E-05 10:17:37.140 1.500E-01 0.500 F 0.068 -0.135 -08° 59' 08.40" 1.000E-01 0.500 F 0.072 -0.019 o 691 0.28 Yes No
2017FP2 O C K 2017-03-22.20450 1.000E-05 10:30:47.130 1.500E-01 0.500 F 0.326 0.258 +06° 17' 59.50" 1.000E-01 0.500 F 0.116 -0.712 o 691 1.52 Yes No
2017FL63 O C K 2017-03-22.21082 1.000E-05 10:17:29.880 1.500E-01 0.500 F 0.068 -0.975 -08° 59' 25.90" 1.000E-01 0.500 F 0.072 -0.220 o 691 2.04 Yes No
2017FP2 O C K 2017-03-22.21492 1.000E-05 10:30:46.440 1.500E-01 0.500 F 0.326 0.533 +06° 18' 18.70" 1.000E-01 0.500 F 0.116 -0.656 o 691 1.70 Yes No
2017FL63 O C K 2017-03-22.22125 1.000E-05 10:17:22.660 1.500E-01 0.500 F 0.068 -1.065 -08° 59' 42.80" 1.000E-01 0.500 F 0.072 0.072 o 691 2.18 Yes No
2017FP2 O C K 2017-03-22.22534 1.000E-05 10:30:45.690 1.500E-01 0.500 F 0.326 -0.082 +06° 18' 37.20" 1.000E-01 0.500 F 0.116 -1.289 o 691 2.59 Yes No
1990UQ O C 2017-03-22.23598 1.000E-05 10:18:00.190 1.500E-01 0.500 F 0.057 -0.084 +15° 21' 36.00" 1.000E-01 0.500 F 0.165 -0.130 19.7 V 0.70 0.42 o 691 0.31 Yes Yes
1990UQ O C 2017-03-22.23961 1.000E-05 10:17:59.790 1.500E-01 0.500 F 0.057 0.018 +15° 21' 38.80" 1.000E-01 0.500 F 0.165 0.019 19.8 V 0.70 0.52 o 691 0.05 Yes Yes
1990UQ O C 2017-03-22.24323 1.000E-05 10:17:59.370 1.500E-01 0.500 F 0.057 -0.185 +15° 21' 41.40" 1.000E-01 0.500 F 0.165 -0.024 19.9 V 0.70 0.62 o 691 0.37 Yes Yes
2017FW2 O C K 2017-03-22.25533 1.000E-05 10:55:13.000 1.500E-01 0.500 F 0.172 0.001 +22° 33' 44.00" 1.000E-01 0.500 F 0.136 0.303 o 691 0.62 Yes No
2017FW2 O C K 2017-03-22.26271 1.000E-05 10:55:13.320 1.500E-01 0.500 F 0.172 0.035 +22° 35' 02.50" 1.000E-01 0.500 F 0.136 -0.118 19.7 R 0.70 -0.08 o 691 0.25 Yes Yes
2017FW2 O C K 2017-03-22.27009 1.000E-05 10:55:13.610 1.500E-01 0.500 F 0.172 -0.332 +22° 36' 21.20" 1.000E-01 0.500 F 0.136 0.006 19.6 R 0.70 -0.18 o 691 0.67 Yes Yes
2017FV2 O C 2017-03-22.35152 1.000E-05 11:29:22.930 1.500E-01 0.500 F 0.286 -0.716 -01° 29' 13.10" 1.000E-01 0.500 F 0.039 -0.123 20.3 V 0.70 -0.22 o 691 1.55 Yes Yes
2017DC38 O C 2017-03-22.35152 1.000E-05 11:27:02.450 1.500E-01 0.500 F 0.228 0.391 -01° 53' 28.90" 1.000E-01 0.500 F 0.116 0.126 19.6 V 0.70 0.04 o 691 0.83 Yes Yes
2017FV2 O C 2017-03-22.36252 1.000E-05 11:29:20.750 1.500E-01 0.500 F 0.286 -0.243 -01° 29' 20.70" 1.000E-01 0.500 F 0.039 -0.032 20.8 V 0.70 0.28 o 691 0.53 Yes Yes
2017DC38 O C 2017-03-22.36252 1.000E-05 11:27:06.500 1.500E-01 0.500 F 0.228 0.296 -01° 53' 30.60" 1.000E-01 0.500 F 0.116 -0.106 19.8 V 0.70 0.24 o 691 0.63 Yes Yes
2017FV2 O C 2017-03-22.37342 1.000E-05 11:29:18.570 1.500E-01 0.500 F 0.286 -0.204 -01° 29' 28.30" 1.000E-01 0.500 F 0.039 -0.028 20.3 V 0.70 -0.23 o 691 0.44 Yes Yes
2017DC38 O C 2017-03-22.37342 1.000E-05 11:27:10.520 1.500E-01 0.500 F 0.228 0.004 -01° 53' 32.00" 1.000E-01 0.500 F 0.116 -0.067 19.5 V 0.70 -0.06 o 691 0.14 Yes Yes
2016XD1 O C K 2017-03-24.14203 1.000E-05 06:38:02.280 1.500E-01 0.500 F -0.055 -0.316 +04° 34' 22.20" 1.000E-01 0.500 F 0.063 -0.082 20.4 R 0.70 -0.05 o 691 0.66 Yes Yes
2016XD1 O C K 2017-03-24.17110 1.000E-05 06:38:07.120 1.500E-01 0.500 F -0.055 -0.249 +04° 34' 00.90" 1.000E-01 0.500 F 0.063 0.096 20.3 R 0.70 -0.15 o 691 0.54 Yes Yes
2016XD1 O C K 2017-03-24.20019 1.000E-05 06:38:11.980 1.500E-01 0.500 F -0.055 -0.131 +04° 33' 39.40" 1.000E-01 0.500 F 0.063 0.107 o 691 0.34 Yes No
2016RF40 O C K 2017-03-24.20646 1.000E-05 08:00:52.840 1.500E-01 0.500 F 0.041 -1.225 +02° 00' 53.30" 1.000E-01 0.500 F 0.091 -1.191 o 691 3.23 No No
2016RF40 O C K 2017-03-24.23403 1.000E-05 08:00:57.160 1.500E-01 0.500 F 0.041 -0.589 +02° 02' 09.50" 1.000E-01 0.500 F 0.091 -0.744 o 691 2.01 Yes No
2017FR64 O C K 2017-03-24.29166 1.000E-05 12:43:50.400 1.500E-01 0.500 F 0.144 0.620 +08° 16' 04.70" 1.000E-01 0.500 F 0.158 -0.358 20.6 R 0.70 0.16 o 691 1.44 Yes Yes
2017FE65 O C K 2017-03-24.29448 1.000E-05 13:51:31.520 1.500E-01 0.500 F 0.154 -0.059 -01° 47' 34.20" 1.000E-01 0.500 F 0.171 0.258 20.7 R 0.70 -0.05 o 691 0.53 Yes Yes
2017FR64 O C K 2017-03-24.30285 1.000E-05 12:43:50.010 1.500E-01 0.500 F 0.144 -0.083 +08° 15' 51.90" 1.000E-01 0.500 F 0.158 -0.412 20.9 R 0.70 0.46 o 691 0.84 Yes Yes
2017FE65 O C K 2017-03-24.30561 1.000E-05 13:51:30.420 1.500E-01 0.500 F 0.154 -0.098 -01° 47' 07.10" 1.000E-01 0.500 F 0.171 -0.298 20.0 R 0.70 -0.75 o 691 0.63 Yes Yes
2017FR64 O C K 2017-03-24.31396 1.000E-05 12:43:49.690 1.500E-01 0.500 F 0.144 0.254 +08° 15' 39.10" 1.000E-01 0.500 F 0.158 -0.529 21.3 R 0.70 0.86 o 691 1.18 Yes Yes
2017FE65 O C K 2017-03-24.31672 1.000E-05 13:51:29.320 1.500E-01 0.500 F 0.154 -0.131 -01° 46' 39.30" 1.000E-01 0.500 F 0.171 -0.106 20.4 R 0.70 -0.35 o 691 0.34 Yes Yes
2016VV3 O C 2017-03-24.32547 1.000E-05 13:12:21.070 1.500E-01 0.500 F 0.219 -0.526 +03° 37' 04.70" 1.000E-01 0.500 F 0.250 0.569 21.4 V 0.70 0.73 o 691 1.56 Yes Yes
2017FU64 O C H 2017-03-24.32914 1.000E-05 12:51:42.550 1.500E-01 0.612 F 0.115 0.030 +11° 25' 34.90" 1.000E-01 0.612 F 0.348 0.017 20.5 R 0.70 0.06 o 691 0.06 Yes Yes
2017FJ90 O C H 2017-03-24.33294 1.000E-05 13:46:25.660 1.500E-01 0.500 F 0.180 -0.239 -07° 01' 46.60" 1.000E-01 0.500 F 0.054 -0.086 20.5 R 0.70 0.30 o 691 0.51 Yes Yes
2016VV3 O C 2017-03-24.33658 1.000E-05 13:12:20.140 1.500E-01 0.500 F 0.219 -0.460 +03° 37' 07.70" 1.000E-01 0.500 F 0.250 0.913 20.5 V 0.70 -0.17 o 691 2.05 Yes Yes
2017FU64 O C H 2017-03-24.34023 1.000E-05 12:51:42.600 1.500E-01 0.612 F 0.115 0.353 +11° 25' 47.00" 1.000E-01 0.612 F 0.348 -0.094 20.3 R 0.70 -0.14 o 691 0.60 Yes Yes
2017FJ90 O C H 2017-03-24.34401 1.000E-05 13:46:25.220 1.500E-01 0.500 F 0.180 -0.248 -07° 01' 23.60" 1.000E-01 0.500 F 0.054 0.109 20.5 R 0.70 0.30 o 691 0.54 Yes Yes
2016VV3 O C 2017-03-24.34766 1.000E-05 13:12:19.210 1.500E-01 0.500 F 0.219 -0.426 +03° 37' 09.60" 1.000E-01 0.500 F 0.250 0.169 21.4 V 0.70 0.73 o 691 0.92 Yes Yes
2017FU64 O C H 2017-03-24.35136 1.000E-05 12:51:42.620 1.500E-01 0.612 F 0.115 0.237 +11° 25' 58.90" 1.000E-01 0.612 F 0.348 -0.419 20.2 R 0.70 -0.24 o 691 0.79 Yes Yes
2017FA65 O C K 2017-03-24.36168 1.000E-05 12:51:57.080 1.500E-01 0.500 F 0.073 0.688 +11° 00' 10.40" 1.000E-01 0.500 F 0.315 -0.454 o 691 1.66 Yes No
2017FU64 O C 2017-03-24.36168 1.000E-05 12:51:42.610 1.500E-01 0.612 F 0.115 -0.301 +11° 26' 10.20" 1.000E-01 0.612 F 0.348 -0.427 20.7 V 0.70 -0.14 o 691 0.86 Yes Yes
2017FE90 O C K 2017-03-24.36700 1.000E-05 12:29:44.180 1.500E-01 0.500 F 0.149 -0.920 +09° 02' 45.60" 1.000E-01 0.500 F 0.134 0.351 21.1 R 0.70 -0.34 o 691 1.98 Yes Yes
2017FU64 O C 2017-03-24.37654 1.000E-05 12:51:42.660 1.500E-01 0.612 F 0.115 -0.178 +11° 26' 26.80" 1.000E-01 0.612 F 0.348 -0.064 20.6 V 0.70 -0.24 o 691 0.31 Yes Yes
2017FE90 O C K 2017-03-24.38186 1.000E-05 12:29:42.170 1.500E-01 0.500 F 0.149 0.682 +09° 02' 51.20" 1.000E-01 0.500 F 0.134 -0.375 21.1 R 0.70 -0.34 o 691 1.56 Yes Yes
2017FU64 O C 2017-03-24.39137 1.000E-05 12:51:42.710 1.500E-01 0.612 F 0.115 -0.145 +11° 26' 42.60" 1.000E-01 0.612 F 0.348 -0.414 20.5 V 0.70 -0.33 o 691 0.72 Yes Yes
2017FA65 O C K 2017-03-24.39137 1.000E-05 12:51:55.050 1.500E-01 0.500 F 0.073 1.416 +11° 02' 08.60" 1.000E-01 0.500 F 0.315 -0.368 o 691 2.95 Yes No
2017FE90 O C K 2017-03-24.39669 1.000E-05 12:29:40.040 1.500E-01 0.500 F 0.149 0.431 +09° 02' 57.60" 1.000E-01 0.500 F 0.134 -0.278 20.7 R 0.70 -0.74 o 691 1.03 Yes Yes
2016LE9 O C H 2017-03-24.40528 1.000E-05 11:40:46.090 1.500E-01 0.500 F 0.124 0.330 -13° 57' 52.70" 1.000E-01 0.500 F 0.102 -0.345 20.9 R 0.70 0.43 o 691 0.96 Yes Yes
2009FF19 O C H 2017-03-24.40881 1.000E-05 12:14:19.360 1.500E-01 0.500 F 0.342 -1.562 +00° 09' 14.40" 1.000E-01 0.500 F 0.218 0.316 o 691 3.17 No No
2016LE9 O C H 2017-03-24.41335 1.000E-05 11:40:45.370 1.500E-01 0.500 F 0.124 0.174 -13° 57' 43.60" 1.000E-01 0.500 F 0.102 0.942 21.6 R 0.70 1.13 o 691 1.93 Yes Yes
2009FF19 O C H 2017-03-24.41687 1.000E-05 12:14:18.320 1.500E-01 0.500 F 0.342 0.468 +00° 09' 21.00" 1.000E-01 0.500 F 0.218 -0.652 o 691 1.61 Yes No
2016LE9 O C H 2017-03-24.42142 1.000E-05 11:40:44.660 1.500E-01 0.500 F 0.124 0.152 -13° 57' 36.90" 1.000E-01 0.500 F 0.102 -0.174 o 691 0.46 Yes No
2009FF19 O C H 2017-03-24.42493 1.000E-05 12:14:17.120 1.500E-01 0.500 F 0.342 0.078 +00° 09' 28.60" 1.000E-01 0.500 F 0.218 -0.621 o 691 1.26 Yes No
2017EC3 O C H 2017-03-24.43488 1.000E-05 13:13:32.640 1.500E-01 0.500 F 0.163 -0.308 +18° 16' 56.70" 1.000E-01 0.500 F 0.211 0.386 o 691 1.06 Yes No
2003BD44 O C 2017-03-24.43864 1.000E-05 11:51:21.970 1.500E-01 0.500 F 0.232 -0.117 +01° 16' 18.40" 1.000E-01 0.500 F 0.204 -0.035 14.5 V 0.70 0.03 o 691 0.24 Yes Yes
2017EC3 O C H 2017-03-24.45233 1.000E-05 13:13:28.610 1.500E-01 0.500 F 0.163 -0.195 +18° 16' 47.40" 1.000E-01 0.500 F 0.211 0.227 20.8 R 0.70 0.67 o 691 0.64 Yes Yes
2003BD44 O C 2017-03-24.45592 1.000E-05 11:51:19.850 1.500E-01 0.500 F 0.232 -0.185 +01° 16' 44.60" 1.000E-01 0.500 F 0.204 -0.076 14.6 V 0.70 0.13 o 691 0.40 Yes Yes
2017EC3 O C H 2017-03-24.46961 1.000E-05 13:13:24.630 1.500E-01 0.500 F 0.132 -0.177 +18° 16' 38.00" 1.000E-01 0.500 F 0.262 -0.049 o 691 0.40 Yes No
2003BD44 O C 2017-03-24.47321 1.000E-05 11:51:17.760 1.500E-01 0.500 F 0.232 -0.078 +01° 17' 11.00" 1.000E-01 0.500 F 0.204 0.038 14.6 V 0.70 0.13 o 691 0.17 Yes Yes
2017FN90 O C 2017-03-24.48266 1.000E-05 16:00:54.680 1.500E-01 0.500 F 0.076 -0.460 +13° 27' 12.20" 1.000E-01 0.500 F 0.231 -0.080 20.1 V 0.70 0.09 o 691 0.94 Yes Yes
2010VE1 O C H 2017-03-24.48968 1.000E-05 16:07:49.600 1.500E-01 0.500 F 0.180 -0.296 -12° 37' 02.40" 1.000E-01 0.500 F 0.151 0.098 21.0 R 0.70 0.34 o 691 0.63 Yes Yes
2017FN90 O C 2017-03-24.49300 1.000E-05 16:00:52.020 1.500E-01 0.500 F 0.076 -0.506 +13° 27' 27.40" 1.000E-01 0.500 F 0.231 -0.064 20.0 V 0.70 -0.01 o 691 1.03 Yes Yes
2010VE1 O C H 2017-03-24.49998 1.000E-05 16:07:49.900 1.500E-01 0.500 F 0.180 0.020 -12° 37' 07.80" 1.000E-01 0.500 F 0.151 -0.319 21.5 R 0.70 0.84 o 691 0.64 Yes Yes
2017FN90 O C 2017-03-24.50331 1.000E-05 16:00:49.410 1.500E-01 0.500 F 0.076 0.006 +13° 27' 42.30" 1.000E-01 0.500 F 0.231 -0.233 21.3 V 0.70 1.29 o 691 0.47 Yes Yes
2010VE1 O C H 2017-03-24.51028 1.000E-05 16:07:50.190 1.500E-01 0.500 F 0.180 0.188 -12° 37' 12.60" 1.000E-01 0.500 F 0.151 -0.146 o 691 0.48 Yes No
2010GA7 O C H 2017-03-24.51314 1.000E-05 16:11:26.100 1.500E-01 0.500 F 0.189 0.350 +05° 06' 25.00" 1.000E-01 0.500 F 0.192 0.471 20.2 R 0.70 0.47 o 691 1.19 Yes Yes
2010GA7 O C H 2017-03-24.51497 1.000E-05 16:11:25.420 1.500E-01 0.500 F 0.189 0.300 +05° 06' 19.00" 1.000E-01 0.500 F 0.192 -0.079 20.5 R 0.70 0.77 o 691 0.63 Yes Yes
2010GA7 O C H 2017-03-24.51681 1.000E-05 16:11:24.680 1.500E-01 0.500 F 0.189 -0.592 +05° 06' 13.30" 1.000E-01 0.500 F 0.192 -0.299 20.1 R 0.70 0.37 o 691 1.35 Yes Yes
2000JA3 O C K 2017-03-24.51958 1.000E-05 17:19:41.090 1.500E-01 0.500 F -0.044 -0.514 -04° 49' 23.20" 1.000E-01 0.500 F 0.298 0.095 o 691 1.07 Yes No
2000JA3 O C K 2017-03-24.52179 1.000E-05 17:19:41.530 1.500E-01 0.500 F -0.044 -0.145 -04° 49' 22.50" 1.000E-01 0.500 F 0.298 0.279 o 691 0.64 Yes No
2000JA3 O C K 2017-03-24.52402 1.000E-05 17:19:41.930 1.500E-01 0.500 F -0.044 -0.429 -04° 49' 22.70" 1.000E-01 0.500 F 0.298 -0.443 o 691 1.24 Yes No
2017FE1 O C 2017-03-25.12910 1.000E-05 11:02:22.250 1.500E-01 0.500 F 0.146 -0.743 +15° 48' 44.90" 1.000E-01 0.500 F 0.231 0.282 20.3 V 0.70 0.23 o 691 1.59 Yes Yes
2017FE1 O C 2017-03-25.14848 1.000E-05 11:02:19.830 1.500E-01 0.500 F 0.146 -0.010 +15° 49' 00.80" 1.000E-01 0.500 F 0.231 -0.119 20.1 V 0.70 0.04 o 691 0.24 Yes Yes
2017FE1 O C 2017-03-25.16787 1.000E-05 11:02:17.320 1.500E-01 0.500 F 0.146 -0.378 +15° 49' 17.60" 1.000E-01 0.500 F 0.231 0.427 20.0 V 0.70 -0.06 o 691 1.14 Yes Yes
2017FL91 O C H 2017-03-25.17636 1.000E-05 10:43:27.910 1.500E-01 0.500 F 0.134 0.079 +29° 17' 50.60" 1.000E-01 0.500 F 0.320 0.486 o 691 0.99 Yes No
2017DA109 O C K 2017-03-25.18073 1.000E-05 12:11:18.540 1.500E-01 0.500 F 0.173 -0.272 +20° 58' 11.90" 1.000E-01 0.500 F 0.242 -0.023 20.8 R 0.70 -0.32 o 691 0.57 Yes Yes
2017EY2 O C H 2017-03-25.18813 1.000E-05 11:21:57.540 1.500E-01 0.500 F 0.119 0.143 +24° 59' 00.90" 1.000E-01 0.500 F 0.214 0.319 20.7 R 0.70 -0.04 o 691 0.78 Yes Yes
2017FL91 O C H 2017-03-25.19178 1.000E-05 10:43:26.170 1.500E-01 0.500 F 0.134 -0.859 +29° 17' 32.10" 1.000E-01 0.500 F 0.320 -0.243 o 691 1.79 Yes No
2017DA109 O C K 2017-03-25.19609 1.000E-05 12:11:20.850 1.500E-01 0.500 F 0.173 0.995 +20° 58' 03.40" 1.000E-01 0.500 F 0.242 -0.243 o 691 2.15 Yes No
2017EY2 O C H 2017-03-25.20344 1.000E-05 11:21:56.940 1.500E-01 0.500 F 0.119 -0.279 +24° 58' 35.30" 1.000E-01 0.500 F 0.214 -0.262 21.2 R 0.70 0.46 o 691 0.82 Yes Yes
2017FL91 O C H 2017-03-25.20708 1.000E-05 10:43:24.570 1.500E-01 0.500 F 0.134 -0.094 +29° 17' 14.90" 1.000E-01 0.500 F 0.320 0.267 21.5 R 0.70 0.48 o 691 0.57 Yes Yes
2017DA109 O C K 2017-03-25.21138 1.000E-05 12:11:22.960 1.500E-01 0.500 F 0.173 -0.164 +20° 57' 55.50" 1.000E-01 0.500 F 0.242 0.207 20.7 R 0.70 -0.42 o 691 0.56 Yes Yes
2017EY2 O C H 2017-03-25.21873 1.000E-05 11:21:56.410 1.500E-01 0.500 F 0.119 0.313 +24° 58' 10.60" 1.000E-01 0.500 F 0.214 0.084 20.8 R 0.70 0.05 o 691 0.69 Yes Yes
2009FF19 O C H 2017-03-25.22385 1.000E-05 12:12:24.820 1.500E-01 0.500 F 0.289 -0.204 +00° 22' 02.80" 1.000E-01 0.500 F 0.270 -0.541 o 691 1.16 Yes No
2009FF19 O C H 2017-03-25.23456 1.000E-05 12:12:23.220 1.500E-01 0.500 F 0.289 -0.443 +00° 22' 13.20" 1.000E-01 0.500 F 0.270 -0.301 21.5 R 0.70 0.77 o 691 1.08 Yes Yes
2009FF19 O C H 2017-03-25.24522 1.000E-05 12:12:21.570 1.500E-01 0.500 F 0.289 -1.511 +00° 22' 24.30" 1.000E-01 0.500 F 0.270 0.685 22.1 R 0.70 1.37 o 691 3.30 No Yes
2017DC109 O C 2017-03-25.25723 1.000E-05 11:06:12.780 1.500E-01 0.500 F 0.290 -0.113 -13° 07' 09.70" 1.000E-01 0.500 F -0.055 -0.064 20.7 V 0.70 -0.22 o 691 0.26 Yes Yes
2017FB3 O C K 2017-03-25.26059 1.000E-05 11:26:38.860 1.500E-01 0.500 F 0.115 -0.425 -09° 28' 00.90" 1.000E-01 0.500 F -0.082 0.104 21.8 R 0.70 0.62 o 691 0.88 Yes Yes
2017DC109 O C 2017-03-25.26810 1.000E-05 11:06:13.920 1.500E-01 0.500 F 0.290 -0.378 -13° 07' 15.70" 1.000E-01 0.500 F -0.055 -0.141 20.9 V 0.70 -0.02 o 691 0.82 Yes Yes
2017FB3 O C K 2017-03-25.27147 1.000E-05 11:26:37.420 1.500E-01 0.500 F 0.115 -0.487 -09° 27' 40.50" 1.000E-01 0.500 F -0.082 -0.177 o 691 1.04 Yes No
2017DC109 O C 2017-03-25.27898 1.000E-05 11:06:15.090 1.500E-01 0.500 F 0.290 -0.231 -13° 07' 21.30" 1.000E-01 0.500 F -0.055 0.145 21.0 V 0.70 0.08 o 691 0.55 Yes Yes
2017FB3 O C K 2017-03-25.28236 1.000E-05 11:26:36.000 1.500E-01 0.500 F 0.115 -0.234 -09° 27' 19.20" 1.000E-01 0.500 F -0.082 0.369 o 691 0.88 Yes No
2017FX2 O C H 2017-03-25.32167 1.000E-05 12:06:19.190 1.500E-01 0.500 F 0.183 0.147 -06° 59' 26.60" 1.000E-01 0.500 F 0.063 -0.296 21.0 R 0.70 0.49 o 691 0.67 Yes Yes
2017FX2 O C H 2017-03-25.33491 1.000E-05 12:06:20.450 1.500E-01 0.500 F 0.183 -0.162 -07° 00' 05.50" 1.000E-01 0.500 F 0.063 -0.086 21.0 R 0.70 0.49 o 691 0.37 Yes Yes
2017FX2 O C H 2017-03-25.34824 1.000E-05 12:06:21.770 1.500E-01 0.500 F 0.183 0.160 -07° 00' 44.70" 1.000E-01 0.500 F 0.063 0.020 21.0 R 0.70 0.49 o 691 0.32 Yes Yes
2016QC84 O C H 2017-03-25.36130 1.000E-05 10:58:58.330 1.500E-01 0.500 F 0.165 0.060 +02° 18' 54.90" 1.000E-01 0.500 F 0.071 -0.053 19.5 R 0.70 -0.14 o 691 0.16 Yes Yes
2017EJ3 O C H 2017-03-25.36446 1.000E-05 11:04:34.400 1.500E-01 0.500 F 0.361 0.042 +08° 21' 00.60" 1.000E-01 0.500 F 0.161 -0.118 21.2 R 0.70 0.22 o 691 0.28 Yes Yes
2016QC84 O C H 2017-03-25.37683 1.000E-05 10:58:56.580 1.500E-01 0.500 F 0.165 0.098 +02° 18' 40.30" 1.000E-01 0.500 F 0.071 -0.048 19.7 R 0.70 0.06 o 691 0.22 Yes Yes
2017EJ3 O C H 2017-03-25.37999 1.000E-05 11:04:32.350 1.500E-01 0.500 F 0.361 0.900 +08° 20' 20.50" 1.000E-01 0.500 F 0.161 0.558 21.6 R 0.70 0.62 o 691 2.35 Yes Yes
2016QC84 O C H 2017-03-25.39236 1.000E-05 10:58:54.830 1.500E-01 0.500 F 0.165 0.013 +02° 18' 25.80" 1.000E-01 0.500 F 0.071 0.054 19.6 R 0.70 -0.04 o 691 0.11 Yes Yes
2017EJ3 O C H 2017-03-25.39551 1.000E-05 11:04:30.210 1.500E-01 0.500 F 0.361 0.170 +08° 19' 39.50" 1.000E-01 0.500 F 0.161 0.324 21.6 R 0.70 0.62 o 691 0.82 Yes Yes
2017FO90 O C 2017-03-25.40093 1.000E-05 14:57:51.490 1.500E-01 0.500 F 0.200 -0.147 -21° 11' 36.30" 1.000E-01 0.500 F 0.034 -0.059 20.1 V 0.70 -0.12 o 691 0.32 Yes Yes
2012EC O C H 2017-03-25.40912 1.000E-05 14:54:36.430 1.500E-01 0.500 F 0.340 0.089 -22° 15' 26.40" 1.000E-01 0.500 F 0.140 -0.013 20.9 R 0.70 0.07 o 691 0.18 Yes Yes
2017FO90 O C 2017-03-25.41219 1.000E-05 14:57:54.370 1.500E-01 0.500 F 0.200 0.067 -21° 11' 47.70" 1.000E-01 0.500 F 0.034 -0.312 20.0 V 0.70 -0.22 o 691 0.64 Yes Yes
2012EC O C H 2017-03-25.42021 1.000E-05 14:54:37.770 1.500E-01 0.500 F 0.340 -0.293 -22° 15' 39.50" 1.000E-01 0.500 F 0.140 -0.090 21.5 R 0.70 0.67 o 691 0.62 Yes Yes
2017FO90 O C 2017-03-25.42329 1.000E-05 14:57:57.180 1.500E-01 0.500 F 0.200 -0.118 -21° 11' 58.40" 1.000E-01 0.500 F 0.034 -0.081 20.1 V 0.70 -0.12 o 691 0.29 Yes Yes
2012EC O C H 2017-03-25.43130 1.000E-05 14:54:39.130 1.500E-01 0.500 F 0.340 -0.394 -22° 15' 51.80" 1.000E-01 0.500 F 0.140 0.556 21.1 R 0.70 0.27 o 691 1.37 Yes Yes
2017FN90 O C H 2017-03-25.43523 1.000E-05 15:57:20.400 1.500E-01 0.500 F 0.112 -0.175 +13° 49' 24.00" 1.000E-01 0.500 F 0.293 0.375 19.4 R 0.70 -0.28 o 691 0.84 Yes Yes
2010GA7 O C H 2017-03-25.43736 1.000E-05 16:05:49.350 1.500E-01 0.500 F 0.210 0.282 +04° 19' 33.20" 1.000E-01 0.500 F 0.157 -0.058 20.0 R 0.70 0.36 o 691 0.58 Yes Yes
2004JR O C K 2017-03-25.44008 1.000E-05 16:45:31.560 1.500E-01 0.500 F 0.026 0.220 -06° 41' 23.20" 1.000E-01 0.500 F 0.117 -0.021 o 691 0.45 Yes No
2017FN90 O C H 2017-03-25.44695 1.000E-05 15:57:17.590 1.500E-01 0.500 F 0.112 0.000 +13° 49' 39.10" 1.000E-01 0.500 F 0.293 -0.161 19.7 R 0.70 0.02 o 691 0.32 Yes Yes
2010GA7 O C H 2017-03-25.44908 1.000E-05 16:05:44.830 1.500E-01 0.500 F 0.210 0.731 +04° 18' 56.90" 1.000E-01 0.500 F 0.157 0.061 20.1 R 0.70 0.46 o 691 1.48 Yes Yes
2004JR O C K 2017-03-25.45180 1.000E-05 16:45:32.370 1.500E-01 0.500 F 0.026 0.074 -06° 41' 01.40" 1.000E-01 0.500 F 0.117 -0.033 20.9 R 0.70 -0.26 o 691 0.16 Yes Yes
2017FN90 O C H 2017-03-25.45866 1.000E-05 15:57:14.770 1.500E-01 0.500 F 0.112 -0.003 +13° 49' 55.20" 1.000E-01 0.500 F 0.293 0.405 19.5 R 0.70 -0.18 o 691 0.82 Yes Yes
2010GA7 O C H 2017-03-25.46078 1.000E-05 16:05:40.250 1.500E-01 0.500 F 0.210 0.235 +04° 18' 20.40" 1.000E-01 0.500 F 0.157 -0.049 20.3 R 0.70 0.66 o 691 0.48 Yes Yes
2004JR O C K 2017-03-25.46350 1.000E-05 16:45:33.180 1.500E-01 0.500 F 0.026 -0.040 -06° 40' 39.50" 1.000E-01 0.500 F 0.117 0.081 o 691 0.18 Yes No
2016YN13 O C K 2017-03-25.47919 1.000E-05 14:56:11.020 1.500E-01 0.500 F 0.237 -0.107 +02° 03' 34.10" 1.000E-01 0.500 F 0.242 0.617 21.4 R 0.70 -0.01 o 691 1.29 Yes Yes
2016YN13 O C K 2017-03-25.49807 1.000E-05 14:56:10.500 1.500E-01 0.500 F 0.237 0.009 +02° 03' 52.50" 1.000E-01 0.500 F 0.242 -0.411 21.4 R 0.70 -0.01 o 691 0.85 Yes Yes
2017FH101 O C K 2017-03-26.31895 1.000E-05 12:03:18.610 1.500E-01 0.500 F 0.334 0.091 -15° 41' 59.80" 1.000E-01 0.500 F 0.032 -0.112 o 691 0.29 Yes No
2017FH101 O C K 2017-03-26.32190 1.000E-05 12:03:18.680 1.500E-01 0.500 F 0.334 0.129 -15° 41' 55.90" 1.000E-01 0.500 F 0.032 -0.169 o 691 0.43 Yes No
2017FH101 O C K 2017-03-26.32485 1.000E-05 12:03:18.740 1.500E-01 0.500 F 0.334 0.020 -15° 41' 51.70" 1.000E-01 0.500 F 0.032 0.070 o 691 0.15 Yes No
2000HO14 O C 2017-03-26.34022 1.000E-05 12:41:44.810 1.500E-01 0.500 F 0.426 -0.303 -11° 14' 38.30" 1.000E-01 0.500 F 0.173 0.276 19.7 V 0.70 0.45 o 691 0.82 Yes Yes
2017FQ91 O C H 2017-03-26.34022 1.000E-05 12:41:02.940 1.500E-01 0.500 F 0.420 0.182 -11° 45' 42.70" 1.000E-01 0.500 F 0.111 -0.080 20.9 R 0.70 0.65 o 691 0.40 Yes Yes
2000HO14 O C 2017-03-26.34538 1.000E-05 12:41:44.540 1.500E-01 0.500 F 0.426 -0.079 -11° 14' 35.90" 1.000E-01 0.500 F 0.173 0.048 19.8 V 0.70 0.55 o 691 0.19 Yes Yes
2017FQ91 O C H 2017-03-26.34538 1.000E-05 12:41:00.920 1.500E-01 0.500 F 0.420 0.288 -11° 46' 20.30" 1.000E-01 0.500 F 0.111 0.085 20.6 R 0.70 0.35 o 691 0.61 Yes Yes
2000HO14 O C 2017-03-26.35055 1.000E-05 12:41:44.240 1.500E-01 0.500 F 0.426 -0.289 -11° 14' 33.20" 1.000E-01 0.500 F 0.173 0.112 19.6 V 0.70 0.35 o 691 0.62 Yes Yes
2017FQ91 O C H 2017-03-26.35055 1.000E-05 12:40:58.910 1.500E-01 0.500 F 0.420 0.617 -11° 46' 58.30" 1.000E-01 0.500 F 0.111 -0.063 21.3 R 0.70 1.06 o 691 1.26 Yes Yes
2017FL102 O C H 2017-03-26.35994 1.000E-05 12:31:25.640 1.500E-01 0.500 F 0.204 -0.011 -20° 41' 22.40" 1.000E-01 0.500 F -0.075 -0.230 20.7 R 0.70 0.22 o 691 0.46 Yes Yes
2017FK101 O C K 2017-03-26.36239 1.000E-05 12:24:58.570 1.500E-01 0.500 F 0.429 0.128 -24° 28' 37.70" 1.000E-01 0.500 F 0.274 0.613 19.8 R 0.70 -0.84 o 691 1.26 Yes Yes
2017FL102 O C H 2017-03-26.36731 1.000E-05 12:31:23.580 1.500E-01 0.500 F 0.204 -1.242 -20° 41' 35.20" 1.000E-01 0.500 F -0.075 -0.619 20.9 R 0.70 0.42 o 691 2.79 Yes Yes
2017FK101 O C K 2017-03-26.36976 1.000E-05 12:24:57.710 1.500E-01 0.500 F 0.429 0.675 -24° 29' 01.60" 1.000E-01 0.500 F 0.274 1.203 20.4 R 0.70 -0.24 o 691 2.77 Yes Yes
2017FL102 O C H 2017-03-26.37467 1.000E-05 12:31:21.710 1.500E-01 0.500 F 0.204 0.157 -20° 41' 46.80" 1.000E-01 0.500 F -0.075 0.165 21.0 R 0.70 0.52 o 691 0.46 Yes Yes
2017FK101 O C K 2017-03-26.37713 1.000E-05 12:24:56.770 1.500E-01 0.500 F 0.429 0.112 -24° 29' 27.30" 1.000E-01 0.500 F 0.274 -0.033 20.0 R 0.70 -0.64 o 691 0.23 Yes Yes
2017FM63 O C K 2017-03-26.38552 1.000E-05 12:49:04.380 1.500E-01 0.500 F 0.231 0.082 +10° 13' 18.50" 1.000E-01 0.500 F 0.300 -0.162 20.5 R 0.70 -0.67 o 691 0.37 Yes Yes
2017FM63 O C K 2017-03-26.39548 1.000E-05 12:49:06.020 1.500E-01 0.500 F 0.231 0.296 +10° 13' 05.30" 1.000E-01 0.500 F 0.300 -0.135 20.6 R 0.70 -0.57 o 691 0.66 Yes Yes
2017FM63 O C K 2017-03-26.40536 1.000E-05 12:49:07.610 1.500E-01 0.500 F 0.231 -0.098 +10° 12' 52.30" 1.000E-01 0.500 F 0.300 0.017 20.3 R 0.70 -0.87 o 691 0.20 Yes Yes
1996FS1 O C H 2017-03-26.41761 1.000E-05 11:43:29.380 1.500E-01 0.500 F 0.047 0.355 +19° 39' 06.50" 1.000E-01 0.500 F 0.300 -0.739 o 691 1.66 Yes No
2017AP20 O C H 2017-03-26.42099 1.000E-05 12:09:11.730 1.500E-01 0.500 F 0.161 0.108 +24° 39' 30.90" 1.000E-01 0.500 F 0.212 -0.075 19.8 R 0.70 0.04 o 691 0.26 Yes Yes
1996FS1 O C H 2017-03-26.42436 1.000E-05 11:43:28.420 1.500E-01 0.500 F 0.047 0.962 +19° 39' 17.90" 1.000E-01 0.500 F 0.300 -0.687 21.3 R 0.70 0.47 o 691 2.39 Yes Yes
2017AP20 O C H 2017-03-26.42774 1.000E-05 12:09:10.970 1.500E-01 0.500 F 0.161 0.037 +24° 39' 29.10" 1.000E-01 0.500 F 0.212 0.063 o 691 0.14 Yes No
1996FS1 O C H 2017-03-26.43112 1.000E-05 11:43:27.380 1.500E-01 0.500 F 0.047 0.442 +19° 39' 29.60" 1.000E-01 0.500 F 0.300 -0.342 21.3 R 0.70 0.47 o 691 1.13 Yes Yes
2017AP20 O C H 2017-03-26.43449 1.000E-05 12:09:10.170 1.500E-01 0.500 F 0.161 -0.592 +24° 39' 26.90" 1.000E-01 0.500 F 0.212 -0.195 o 691 1.25 Yes No
2017EW2 O C H 2017-03-26.43885 1.000E-05 13:16:43.230 1.500E-01 0.500 F 0.176 -0.173 +20° 10' 11.50" 1.000E-01 0.500 F 0.279 -0.593 o 691 1.24 Yes No
2017FO2 O C H 2017-03-26.44197 1.000E-05 12:43:15.680 1.500E-01 0.500 F 0.114 0.008 +12° 06' 56.40" 1.000E-01 0.500 F 0.175 0.422 20.1 R 0.70 -0.03 o 691 0.85 Yes Yes
2017EW2 O C H 2017-03-26.44510 1.000E-05 13:16:43.750 1.500E-01 0.500 F 0.176 0.280 +20° 09' 51.30" 1.000E-01 0.500 F 0.279 -0.341 21.1 R 0.70 0.38 o 691 0.88 Yes Yes
2017FO2 O C H 2017-03-26.44822 1.000E-05 12:43:15.350 1.500E-01 0.500 F 0.114 0.259 +12° 06' 44.20" 1.000E-01 0.500 F 0.175 0.304 20.2 R 0.70 0.07 o 691 0.80 Yes Yes
2017FU O C K 2017-03-26.45756 1.000E-05 13:17:29.770 1.500E-01 0.500 F 0.171 1.249 +09° 20' 09.60" 1.000E-01 0.500 F 0.210 -0.184 o 691 2.56 Yes No
2004SW55 O C H 2017-03-26.46525 1.000E-05 13:39:20.750 1.500E-01 0.500 F 0.094 0.090 +13° 10' 31.60" 1.000E-01 0.500 F 0.143 -0.292 21.6 R 0.70 0.66 o 691 0.62 Yes Yes
2017FU O C K 2017-03-26.46825 1.000E-05 13:17:32.690 1.500E-01 0.500 F 0.171 0.631 +09° 20' 09.60" 1.000E-01 0.500 F 0.210 -0.525 20.1 R 0.70 -1.03 o 691 1.67 Yes Yes
2004SW55 O C H 2017-03-26.47596 1.000E-05 13:39:19.420 1.500E-01 0.500 F 0.094 0.423 +13° 10' 35.80" 1.000E-01 0.500 F 0.143 0.144 o 691 0.90 Yes No
2017FU O C K 2017-03-26.47896 1.000E-05 13:17:35.600 1.500E-01 0.500 F 0.133 -0.365 +09° 20' 10.40" 1.000E-01 0.500 F 0.124 0.069 20.5 R 0.70 -0.63 o 691 0.75 Yes Yes
2004SW55 O C H 2017-03-26.48667 1.000E-05 13:39:18.020 1.500E-01 0.500 F 0.094 -0.301 +13° 10' 39.10" 1.000E-01 0.500 F 0.143 -0.307 21.4 R 0.70 0.46 o 691 0.87 Yes Yes
2011GL44 O C H 2017-03-26.50776 1.000E-05 15:57:31.870 1.500E-01 0.500 F 0.111 0.459 -03° 50' 27.00" 1.000E-01 0.500 F 0.276 -0.096 o 691 0.94 Yes No
2011GL44 O C H 2017-03-26.51141 1.000E-05 15:57:31.610 1.500E-01 0.500 F 0.111 -0.107 -03° 50' 27.80" 1.000E-01 0.500 F 0.276 -0.285 o 691 0.61 Yes No

[1-200] [201-400] [401-600] [601-800] [801-1000] [1001-1200] [1201-1400] [1401-1600] [1601-1800] [1801-2000] [2001-2200] [2201-2400] [2401-2600] [2601-2800] [2801-3000] [3001-3200] [3201-3400] [3401-3600] [3601-3800] [3801-4000] [4001-4200] [4201-4400] [4401-4600] [4601-4800] [4801-5000] [5001-5200] [5201-5400] [5401-5600] [5601-5800] [5801-6000] [6001-6200] [6201-6400] [6401-6600] [6601-6800] [6801-7000] [7001-7200] [7201-7400] [7401-7600] [7601-7800] [7801-8000] [8001-8200] [8201-8400] [8401-8600] [8601-8800] [8801-9000] [9001-9200] [9201-9400] [9401-9600] [9601-9800] [9801-10000] [10001-10200] [10201-10400] [10401-10600] [10601-10800] [10801-11000] [11001-11200] [11201-11400] [11401-11600] [11601-11800] [11801-12000] [12001-12200] [12201-12400] [12401-12600] [12601-12800] [12801-13000] [13001-13200] [13201-13400] [13401-13600] [13601-13800] [13801-14000] [14001-14200] [14201-14400] [14401-14600] [14601-14800] [14801-15000] [15001-15200] [15201-15400] [15401-15600] [15601-15800] [15801-16000] [16001-16200] [16201-16400] [16401-16600] [16601-16800] [16801-17000] [17001-17200] [17201-17400] [17401-17600] [17601-17800] [17801-18000] [18001-18200] [18201-18400] [18401-18600] [18601-18800] [18801-19000] [19001-19200] [19201-19400] [19401-19600] [19601-19800] [19801-20000] [20001-20200] [20201-20400] [20401-20600] [20601-20800] [20801-21000] [21001-21200] [21201-21400] [21401-21600] [21601-21800] [21801-22000] [22001-22200] [22201-22400] [22401-22600] [22601-22800] [22801-23000] [23001-23200] [23201-23400] [23401-23600] [23601-23800] [23801-24000] [24001-24200] [24201-24400] [24401-24600] [24601-24800] [24801-25000] [25001-25200] [25201-25400] [25401-25600] [25601-25800] [25801-26000] [26001-26200] [26201-26400] [26401-26600] [26601-26800] [26801-27000] [27001-27200] [27201-27400] [27401-27600] [27601-27800] [27801-28000] [28001-28200] [28201-28400] [28401-28600] [28601-28800] [28801-29000] [29001-29200] [29201-29400] [29401-29600] [29601-29800] [29801-30000] [30001-30200] [30201-30400] [30401-30600] [30601-30800] [30801-31000] [31001-31200] [31201-31400] [31401-31600] [31601-31800] [31801-32000] [32001-32200] [32201-32400] [32401-32600] [32601-32800] [32801-33000] [33001-33200] [33201-33400] [33401-33600] [33601-33800] [33801-34000] [34001-34200] [34201-34400] [34401-34600] [34601-34800] [34801-35000] [35001-35200] [35201-35400] [35401-35600] [35601-35800] [35801-36000] [36001-36200] [36201-36400] [36401-36600] [36601-36800] [36801-37000] [37001-37200] [37201-37400] [37401-37600] [37601-37800] [37801-38000] [38001-38200] [38201-38400] [38401-38600] [38601-38800] [38801-39000] [39001-39200] [39201-39400] [39401-39600] [39601-39800] [39801-40000] [40001-40200] [40201-40400] [40401-40600] [40601-40800] [40801-41000] [41001-41200] [41201-41400] [41401-41600] [41601-41800] [41801-42000] [42001-42200] [42201-42400] [42401-42600] [42601-42800] [42801-43000] [43001-43200] [43201-43400] [43401-43600] [43601-43800] [43801-44000] [44001-44200] [44201-44400] [44401-44600] [44601-44800] [44801-45000] [45001-45200] [45201-45400] [45401-45600] [45601-45800] [45801-46000] [46001-46200] [46201-46400] [46401-46600] [46601-46800] [46801-47000] [47001-47200] [47201-47400] [47401-47600] [47601-47800] [47801-48000] [48001-48200] [48201-48400] [48401-48600] [48601-48800] [48801-49000] [49001-49200] [49201-49400] [49401-49600] [49601-49800] [49801-50000] [50001-50200] [50201-50388]